Orbital elements of ELEKTRO-L 3
| Launched | 23 December 2019 |
| Flight ended | – |
| Launch site | Tyuratam Missile and Space Center, Kazakhstan (Also known as Baikonur Cosmodrome) |
| Owner | Commonwealth of Independent States (former USSR) |
| NORAD ID | 44903 |
| Date fetched |
Epoch osculation |
Inc. [°] |
Ecc. | RA asc node [hr] |
Arg Peri. [°] |
Mean anom [°] |
Mean motion [rev/day] |
Abs. mag |
| Date fetched |
Epoch osculation |
Inc. [°] |
Ecc. | RA asc node [hr] |
Arg Peri. [°] |
Mean anom [°] |
Mean motion [rev/day] |
Abs. mag |
| 2026 May 01 17:56 | 2026 May 01 08:34:51 | 0.1376 | 0.00013 | 5.1166 | 313.2748 | 33.9250 | 1.00272 | – |
| 2026 Apr 30 17:56 | 2026 Apr 30 03:29:28 | 0.1346 | 0.00012 | 5.0928 | 308.1759 | 33.9250 | 1.00272 | – |
| 2026 Apr 29 17:57 | 2026 Apr 29 03:31:54 | 0.1321 | 0.00012 | 5.0789 | 304.5399 | 33.9250 | 1.00272 | – |
| 2026 Apr 28 17:56 | 2026 Apr 28 12:07:52 | 0.1305 | 0.00011 | 5.0735 | 301.0178 | 33.9250 | 1.00272 | – |
| 2026 Apr 27 17:58 | 2026 Apr 27 01:49:21 | 0.1267 | 0.00011 | 5.0560 | 297.9664 | 33.9250 | 1.00272 | – |
| 2026 Apr 26 17:58 | 2026 Apr 26 12:13:02 | 0.1252 | 0.00011 | 5.0491 | 295.0500 | 33.9250 | 1.00272 | – |
| 2026 Apr 25 17:58 | 2026 Apr 25 12:15:37 | 0.1223 | 0.00011 | 5.0313 | 293.2626 | 33.9250 | 1.00272 | – |
| 2026 Apr 24 17:59 | 2026 Apr 24 12:18:08 | 0.1193 | 0.00011 | 5.0063 | 292.1765 | 33.9250 | 1.00272 | – |
| 2026 Apr 23 17:57 | 2026 Apr 22 23:22:21 | 0.1149 | 0.00011 | 4.9556 | 292.4722 | 33.9250 | 1.00272 | – |
| 2026 Apr 22 17:57 | 2026 Apr 22 03:49:57 | 0.1124 | 0.00011 | 4.9136 | 291.5258 | 33.9250 | 1.00272 | – |
| 2026 Apr 21 17:57 | 2026 Apr 21 09:00:26 | 0.1104 | 0.00010 | 4.8820 | 293.3128 | 33.9250 | 1.00272 | – |
| 2026 Apr 20 17:57 | 2026 Apr 20 12:28:23 | 0.1081 | 0.00010 | 4.8435 | 295.2460 | 33.9250 | 1.00272 | – |
| 2026 Apr 19 17:58 | 2026 Apr 19 12:30:57 | 0.1058 | 0.00010 | 4.7983 | 299.7578 | 33.9250 | 1.00272 | – |
| 2026 Apr 18 17:56 | 2026 Apr 18 04:00:11 | 0.1026 | 0.00010 | 4.7489 | 305.7189 | 33.9250 | 1.00272 | – |
| 2026 Apr 16 17:57 | 2026 Apr 15 23:12:21 | 0.0973 | 0.00012 | 4.7095 | 312.5532 | 33.9250 | 1.00272 | – |
| 2026 Apr 14 17:57 | 2026 Apr 14 11:01:03 | 0.0932 | 0.00012 | 4.6856 | 313.0985 | 33.9250 | 1.00272 | – |
| 2026 Apr 13 17:57 | 2026 Apr 13 04:12:59 | 0.0897 | 0.00013 | 4.6524 | 313.6982 | 33.9250 | 1.00272 | – |
| 2026 Apr 12 17:57 | 2026 Apr 12 12:48:55 | 0.0881 | 0.00013 | 4.6346 | 312.4477 | 33.9250 | 1.00272 | – |
| 2026 Apr 11 17:57 | 2026 Apr 11 12:51:30 | 0.0856 | 0.00013 | 4.5908 | 312.0711 | 33.9250 | 1.00272 | – |
| 2026 Apr 10 17:58 | 2026 Apr 08 23:15:07 | 0.0807 | 0.00014 | 4.4195 | 312.3010 | 33.9250 | 1.00272 | – |
| 2026 Apr 09 18:01 | 2026 Apr 08 23:15:07 | 0.0807 | 0.00014 | 4.4195 | 312.3010 | 33.9250 | 1.00272 | – |
| 2026 Apr 08 17:57 | 2026 Apr 08 02:42:57 | 0.0792 | 0.00014 | 4.3480 | 311.0000 | 33.9250 | 1.00272 | – |
| 2026 Apr 07 17:57 | 2026 Apr 07 02:45:25 | 0.0778 | 0.00014 | 4.2547 | 310.2154 | 33.9250 | 1.00272 | – |
| 2026 Apr 06 17:57 | 2026 Apr 06 02:47:48 | 0.0766 | 0.00014 | 4.1699 | 308.5050 | 33.9250 | 1.00272 | – |
| 2026 Apr 05 17:56 | 2026 Apr 04 23:24:55 | 0.0753 | 0.00014 | 4.0958 | 306.4789 | 33.9250 | 1.00272 | – |
| 2026 Apr 04 17:57 | 2026 Apr 04 02:52:43 | 0.0738 | 0.00014 | 4.0462 | 302.7570 | 33.9250 | 1.00272 | – |